sensor_id;sensor_type;location;lat;lon;timestamp;pressure;altitude;pressure_sealevel;temperature;humidity
46724;BME280;32463;48.298;11.620;2023-07-31T00:00:56;96446.84;;;14.63;100.00
46724;BME280;32463;48.298;11.620;2023-07-31T00:03:24;96456.38;;;14.56;100.00
46724;BME280;32463;48.298;11.620;2023-07-31T00:05:50;96457.44;;;14.47;100.00
46724;BME280;32463;48.298;11.620;2023-07-31T00:08:18;96454.56;;;14.42;100.00
46724;BME280;32463;48.298;11.620;2023-07-31T00:10:44;96459.50;;;14.37;100.00
46724;BME280;32463;48.298;11.620;2023-07-31T00:13:10;96451.22;;;14.33;100.00
46724;BME280;32463;48.298;11.620;2023-07-31T00:15:37;96457.97;;;14.28;100.00
46724;BME280;32463;48.298;11.620;2023-07-31T00:18:04;96452.19;;;14.18;100.00
46724;BME280;32463;48.298;11.620;2023-07-31T00:20:31;96443.72;;;14.15;100.00
46724;BME280;32463;48.298;11.620;2023-07-31T00:22:58;96455.13;;;14.14;100.00
46724;BME280;32463;48.298;11.620;2023-07-31T00:25:24;96441.75;;;14.18;100.00
46724;BME280;32463;48.298;11.620;2023-07-31T00:27:51;96450.22;;;14.34;100.00
46724;BME280;32463;48.298;11.620;2023-07-31T00:30:17;96450.59;;;14.46;100.00
46724;BME280;32463;48.298;11.620;2023-07-31T00:32:43;96447.00;;;14.47;100.00
46724;BME280;32463;48.298;11.620;2023-07-31T00:35:10;96446.66;;;14.50;100.00
46724;BME280;32463;48.298;11.620;2023-07-31T00:37:36;96450.53;;;14.54;100.00
46724;BME280;32463;48.298;11.620;2023-07-31T00:40:03;96450.88;;;14.51;100.00
46724;BME280;32463;48.298;11.620;2023-07-31T00:42:30;96442.69;;;14.54;100.00
46724;BME280;32463;48.298;11.620;2023-07-31T00:44:56;96439.81;;;14.49;100.00
46724;BME280;32463;48.298;11.620;2023-07-31T00:47:23;96431.72;;;14.44;100.00
46724;BME280;32463;48.298;11.620;2023-07-31T00:49:49;96440.84;;;14.40;100.00
46724;BME280;32463;48.298;11.620;2023-07-31T00:52:16;96435.56;;;14.33;100.00
46724;BME280;32463;48.298;11.620;2023-07-31T00:54:43;96426.22;;;14.24;100.00
46724;BME280;32463;48.298;11.620;2023-07-31T00:57:10;96433.03;;;14.25;100.00
46724;BME280;32463;48.298;11.620;2023-07-31T00:59:37;96426.22;;;14.24;100.00
46724;BME280;32463;48.298;11.620;2023-07-31T01:02:04;96432.94;;;14.19;100.00
46724;BME280;32463;48.298;11.620;2023-07-31T01:04:30;96425.28;;;14.17;100.00
46724;BME280;32463;48.298;11.620;2023-07-31T01:07:33;96431.31;;;14.18;100.00
46724;BME280;32463;48.298;11.620;2023-07-31T01:10:09;96423.78;;;14.23;100.00
46724;BME280;32463;48.298;11.620;2023-07-31T01:12:39;96427.81;;;14.25;100.00
46724;BME280;32463;48.298;11.620;2023-07-31T01:15:08;96425.94;;;14.34;100.00
46724;BME280;32463;48.298;11.620;2023-07-31T01:17:36;96427.19;;;14.38;100.00
46724;BME280;32463;48.298;11.620;2023-07-31T01:20:05;96427.56;;;14.35;100.00
46724;BME280;32463;48.298;11.620;2023-07-31T01:28:14;96415.00;;;14.53;100.00
46724;BME280;32463;48.298;11.620;2023-07-31T01:30:46;96407.78;;;14.55;100.00
46724;BME280;32463;48.298;11.620;2023-07-31T01:33:17;96406.53;;;14.51;100.00
46724;BME280;32463;48.298;11.620;2023-07-31T01:35:45;96404.19;;;14.56;100.00
46724;BME280;32463;48.298;11.620;2023-07-31T01:38:12;96412.94;;;14.63;100.00
46724;BME280;32463;48.298;11.620;2023-07-31T01:40:41;96410.75;;;14.67;100.00
46724;BME280;32463;48.298;11.620;2023-07-31T01:43:08;96411.19;;;14.70;100.00
46724;BME280;32463;48.298;11.620;2023-07-31T01:45:34;96400.38;;;14.73;100.00
46724;BME280;32463;48.298;11.620;2023-07-31T01:48:01;96384.66;;;14.67;100.00
46724;BME280;32463;48.298;11.620;2023-07-31T01:50:27;96392.41;;;14.60;100.00
46724;BME280;32463;48.298;11.620;2023-07-31T01:52:53;96394.47;;;14.50;100.00
46724;BME280;32463;48.298;11.620;2023-07-31T01:55:20;96411.53;;;14.38;100.00
46724;BME280;32463;48.298;11.620;2023-07-31T01:57:46;96399.31;;;14.24;100.00
46724;BME280;32463;48.298;11.620;2023-07-31T02:00:13;96403.63;;;14.16;100.00
46724;BME280;32463;48.298;11.620;2023-07-31T02:02:40;96399.41;;;14.15;100.00
46724;BME280;32463;48.298;11.620;2023-07-31T02:05:06;96396.78;;;14.15;100.00
46724;BME280;32463;48.298;11.620;2023-07-31T02:07:33;96399.13;;;14.10;100.00
46724;BME280;32463;48.298;11.620;2023-07-31T02:09:59;96395.88;;;14.08;100.00
46724;BME280;32463;48.298;11.620;2023-07-31T02:12:26;96391.22;;;14.04;100.00
46724;BME280;32463;48.298;11.620;2023-07-31T02:14:55;96392.47;;;13.93;100.00
46724;BME280;32463;48.298;11.620;2023-07-31T02:17:22;96391.19;;;13.89;100.00
46724;BME280;32463;48.298;11.620;2023-07-31T02:19:48;96389.16;;;13.99;100.00
46724;BME280;32463;48.298;11.620;2023-07-31T02:22:15;96386.97;;;13.88;100.00
46724;BME280;32463;48.298;11.620;2023-07-31T02:24:41;96375.00;;;13.79;100.00
46724;BME280;32463;48.298;11.620;2023-07-31T02:27:07;96379.22;;;13.80;100.00
46724;BME280;32463;48.298;11.620;2023-07-31T02:29:34;96379.84;;;13.82;100.00
46724;BME280;32463;48.298;11.620;2023-07-31T02:32:00;96373.13;;;13.88;100.00
46724;BME280;32463;48.298;11.620;2023-07-31T02:34:27;96370.81;;;13.93;100.00
46724;BME280;32463;48.298;11.620;2023-07-31T02:36:53;96369.66;;;13.95;100.00
46724;BME280;32463;48.298;11.620;2023-07-31T02:39:20;96370.91;;;13.99;100.00
46724;BME280;32463;48.298;11.620;2023-07-31T02:41:47;96364.88;;;13.99;100.00
46724;BME280;32463;48.298;11.620;2023-07-31T02:44:13;96359.41;;;13.94;100.00
46724;BME280;32463;48.298;11.620;2023-07-31T02:46:40;96355.41;;;13.83;100.00
46724;BME280;32463;48.298;11.620;2023-07-31T02:49:06;96351.28;;;13.74;100.00
46724;BME280;32463;48.298;11.620;2023-07-31T02:51:33;96356.22;;;13.69;100.00
46724;BME280;32463;48.298;11.620;2023-07-31T02:53:59;96356.28;;;13.61;100.00
46724;BME280;32463;48.298;11.620;2023-07-31T02:56:25;96357.81;;;13.55;100.00
46724;BME280;32463;48.298;11.620;2023-07-31T02:58:52;96348.81;;;13.43;100.00
46724;BME280;32463;48.298;11.620;2023-07-31T03:01:18;96360.16;;;13.27;100.00
46724;BME280;32463;48.298;11.620;2023-07-31T03:03:45;96352.50;;;13.26;100.00
46724;BME280;32463;48.298;11.620;2023-07-31T03:06:11;96353.66;;;13.23;100.00
46724;BME280;32463;48.298;11.620;2023-07-31T03:08:37;96343.94;;;13.17;100.00
46724;BME280;32463;48.298;11.620;2023-07-31T03:11:04;96338.06;;;13.15;100.00
46724;BME280;32463;48.298;11.620;2023-07-31T03:13:30;96341.41;;;13.09;100.00
46724;BME280;32463;48.298;11.620;2023-07-31T03:15:57;96338.84;;;13.01;100.00
46724;BME280;32463;48.298;11.620;2023-07-31T03:18:23;96347.28;;;13.03;100.00
46724;BME280;32463;48.298;11.620;2023-07-31T03:20:50;96351.22;;;12.99;100.00
46724;BME280;32463;48.298;11.620;2023-07-31T03:23:16;96351.69;;;13.02;100.00
46724;BME280;32463;48.298;11.620;2023-07-31T03:25:58;96347.25;;;13.11;100.00
46724;BME280;32463;48.298;11.620;2023-07-31T03:28:25;96342.28;;;13.24;100.00
46724;BME280;32463;48.298;11.620;2023-07-31T03:30:52;96353.91;;;13.36;100.00
46724;BME280;32463;48.298;11.620;2023-07-31T03:33:19;96354.81;;;13.43;100.00
46724;BME280;32463;48.298;11.620;2023-07-31T03:35:46;96353.56;;;13.54;100.00
46724;BME280;32463;48.298;11.620;2023-07-31T03:38:12;96359.19;;;13.66;100.00
46724;BME280;32463;48.298;11.620;2023-07-31T03:40:39;96356.84;;;13.71;100.00
46724;BME280;32463;48.298;11.620;2023-07-31T03:43:05;96357.75;;;13.78;100.00
46724;BME280;32463;48.298;11.620;2023-07-31T03:45:32;96355.06;;;13.86;100.00
46724;BME280;32463;48.298;11.620;2023-07-31T03:47:58;96360.47;;;13.99;100.00
46724;BME280;32463;48.298;11.620;2023-07-31T03:50:25;96357.34;;;14.04;100.00
46724;BME280;32463;48.298;11.620;2023-07-31T03:52:52;96355.44;;;14.12;100.00
46724;BME280;32463;48.298;11.620;2023-07-31T03:55:18;96355.72;;;14.18;100.00
46724;BME280;32463;48.298;11.620;2023-07-31T03:57:46;96354.00;;;14.25;100.00
46724;BME280;32463;48.298;11.620;2023-07-31T04:00:13;96353.09;;;14.32;100.00
46724;BME280;32463;48.298;11.620;2023-07-31T04:02:40;96355.34;;;14.35;100.00
46724;BME280;32463;48.298;11.620;2023-07-31T04:05:07;96355.44;;;14.42;100.00
46724;BME280;32463;48.298;11.620;2023-07-31T04:07:34;96347.44;;;14.43;100.00
46724;BME280;32463;48.298;11.620;2023-07-31T04:10:01;96348.78;;;14.54;100.00
46724;BME280;32463;48.298;11.620;2023-07-31T04:12:27;96358.13;;;14.63;100.00
46724;BME280;32463;48.298;11.620;2023-07-31T04:14:53;96348.13;;;14.67;100.00
46724;BME280;32463;48.298;11.620;2023-07-31T04:17:20;96355.75;;;14.68;100.00
46724;BME280;32463;48.298;11.620;2023-07-31T04:19:46;96339.09;;;14.69;100.00
46724;BME280;32463;48.298;11.620;2023-07-31T04:22:13;96340.38;;;14.73;100.00
46724;BME280;32463;48.298;11.620;2023-07-31T04:24:39;96338.28;;;14.83;100.00
46724;BME280;32463;48.298;11.620;2023-07-31T04:27:06;96341.63;;;14.99;100.00
46724;BME280;32463;48.298;11.620;2023-07-31T04:29:32;96336.47;;;15.05;100.00
46724;BME280;32463;48.298;11.620;2023-07-31T04:32:00;96345.63;;;15.16;100.00
46724;BME280;32463;48.298;11.620;2023-07-31T04:34:26;96342.53;;;15.27;100.00
46724;BME280;32463;48.298;11.620;2023-07-31T04:36:53;96341.94;;;15.32;100.00
46724;BME280;32463;48.298;11.620;2023-07-31T04:39:19;96333.97;;;15.40;100.00
46724;BME280;32463;48.298;11.620;2023-07-31T04:41:45;96335.84;;;15.46;100.00
46724;BME280;32463;48.298;11.620;2023-07-31T04:44:12;96338.00;;;15.64;100.00
46724;BME280;32463;48.298;11.620;2023-07-31T04:46:38;96334.88;;;15.75;100.00
46724;BME280;32463;48.298;11.620;2023-07-31T04:49:05;96336.13;;;15.79;100.00
46724;BME280;32463;48.298;11.620;2023-07-31T04:51:31;96326.28;;;15.81;100.00
46724;BME280;32463;48.298;11.620;2023-07-31T04:53:58;96327.03;;;15.75;100.00
46724;BME280;32463;48.298;11.620;2023-07-31T04:56:24;96326.44;;;15.73;100.00
46724;BME280;32463;48.298;11.620;2023-07-31T04:58:50;96325.06;;;15.77;100.00
46724;BME280;32463;48.298;11.620;2023-07-31T05:01:17;96322.69;;;15.82;100.00
46724;BME280;32463;48.298;11.620;2023-07-31T05:03:44;96327.59;;;15.98;100.00
46724;BME280;32463;48.298;11.620;2023-07-31T05:06:11;96319.63;;;16.13;100.00
46724;BME280;32463;48.298;11.620;2023-07-31T05:08:39;96316.09;;;16.34;100.00
46724;BME280;32463;48.298;11.620;2023-07-31T05:11:05;96322.03;;;16.49;100.00
46724;BME280;32463;48.298;11.620;2023-07-31T05:13:32;96318.59;;;16.55;100.00
46724;BME280;32463;48.298;11.620;2023-07-31T05:15:58;96319.31;;;16.70;100.00
46724;BME280;32463;48.298;11.620;2023-07-31T05:18:26;96311.47;;;16.77;100.00
46724;BME280;32463;48.298;11.620;2023-07-31T05:20:52;96322.38;;;16.94;100.00
46724;BME280;32463;48.298;11.620;2023-07-31T05:23:18;96327.59;;;16.94;100.00
46724;BME280;32463;48.298;11.620;2023-07-31T05:25:45;96330.66;;;17.04;100.00
46724;BME280;32463;48.298;11.620;2023-07-31T05:28:12;96324.03;;;17.21;100.00
46724;BME280;32463;48.298;11.620;2023-07-31T05:30:39;96326.06;;;17.32;100.00
46724;BME280;32463;48.298;11.620;2023-07-31T05:33:05;96325.66;;;17.55;100.00
46724;BME280;32463;48.298;11.620;2023-07-31T05:35:32;96326.50;;;17.69;100.00
46724;BME280;32463;48.298;11.620;2023-07-31T05:37:58;96325.25;;;17.84;100.00
46724;BME280;32463;48.298;11.620;2023-07-31T05:40:25;96322.97;;;18.14;100.00
46724;BME280;32463;48.298;11.620;2023-07-31T05:42:51;96324.78;;;18.21;100.00
46724;BME280;32463;48.298;11.620;2023-07-31T05:45:18;96327.94;;;18.36;100.00
46724;BME280;32463;48.298;11.620;2023-07-31T05:47:44;96329.31;;;18.65;100.00
46724;BME280;32463;48.298;11.620;2023-07-31T05:50:11;96322.66;;;18.62;100.00
46724;BME280;32463;48.298;11.620;2023-07-31T05:52:38;96324.59;;;18.73;100.00
46724;BME280;32463;48.298;11.620;2023-07-31T05:55:05;96323.25;;;18.64;100.00
46724;BME280;32463;48.298;11.620;2023-07-31T05:57:31;96325.06;;;18.57;100.00
46724;BME280;32463;48.298;11.620;2023-07-31T05:59:58;96330.25;;;18.77;100.00
46724;BME280;32463;48.298;11.620;2023-07-31T06:02:24;96327.50;;;18.52;100.00
46724;BME280;32463;48.298;11.620;2023-07-31T06:04:51;96333.56;;;18.46;100.00
46724;BME280;32463;48.298;11.620;2023-07-31T06:07:17;96332.38;;;18.42;100.00
46724;BME280;32463;48.298;11.620;2023-07-31T06:09:44;96322.78;;;18.16;100.00
46724;BME280;32463;48.298;11.620;2023-07-31T06:12:11;96332.03;;;18.18;100.00
46724;BME280;32463;48.298;11.620;2023-07-31T06:14:37;96328.00;;;18.23;100.00
46724;BME280;32463;48.298;11.620;2023-07-31T06:17:04;96332.78;;;18.39;100.00
46724;BME280;32463;48.298;11.620;2023-07-31T06:19:31;96324.75;;;18.27;100.00
46724;BME280;32463;48.298;11.620;2023-07-31T06:21:58;96336.75;;;18.03;100.00
46724;BME280;32463;48.298;11.620;2023-07-31T06:24:34;96334.88;;;18.24;100.00
46724;BME280;32463;48.298;11.620;2023-07-31T06:27:00;96335.25;;;18.34;100.00
46724;BME280;32463;48.298;11.620;2023-07-31T06:29:29;96334.47;;;18.27;100.00
46724;BME280;32463;48.298;11.620;2023-07-31T06:31:56;96337.59;;;18.48;100.00
46724;BME280;32463;48.298;11.620;2023-07-31T06:34:23;96333.75;;;18.51;100.00
46724;BME280;32463;48.298;11.620;2023-07-31T06:36:50;96335.59;;;18.44;100.00
46724;BME280;32463;48.298;11.620;2023-07-31T06:39:17;96335.41;;;18.39;100.00
46724;BME280;32463;48.298;11.620;2023-07-31T06:41:44;96333.75;;;18.64;100.00
46724;BME280;32463;48.298;11.620;2023-07-31T06:44:10;96336.56;;;18.56;100.00
46724;BME280;32463;48.298;11.620;2023-07-31T06:46:37;96327.50;;;18.45;100.00
46724;BME280;32463;48.298;11.620;2023-07-31T06:49:04;96326.66;;;18.58;100.00
46724;BME280;32463;48.298;11.620;2023-07-31T06:51:30;96317.44;;;18.36;100.00
46724;BME280;32463;48.298;11.620;2023-07-31T06:53:58;96317.50;;;18.23;100.00
46724;BME280;32463;48.298;11.620;2023-07-31T06:56:24;96314.50;;;18.12;100.00
46724;BME280;32463;48.298;11.620;2023-07-31T06:58:51;96309.03;;;18.21;100.00
46724;BME280;32463;48.298;11.620;2023-07-31T07:01:17;96312.34;;;18.54;100.00
46724;BME280;32463;48.298;11.620;2023-07-31T07:03:44;96298.59;;;18.97;100.00
46724;BME280;32463;48.298;11.620;2023-07-31T07:06:10;96303.41;;;19.31;100.00
46724;BME280;32463;48.298;11.620;2023-07-31T07:08:37;96307.00;;;19.68;100.00
46724;BME280;32463;48.298;11.620;2023-07-31T07:11:03;96308.88;;;19.30;100.00
46724;BME280;32463;48.298;11.620;2023-07-31T07:13:30;96310.66;;;19.11;100.00
46724;BME280;32463;48.298;11.620;2023-07-31T07:15:57;96312.22;;;19.18;100.00
46724;BME280;32463;48.298;11.620;2023-07-31T07:18:23;96311.66;;;19.10;100.00
46724;BME280;32463;48.298;11.620;2023-07-31T07:20:51;96308.84;;;19.05;100.00
46724;BME280;32463;48.298;11.620;2023-07-31T07:23:18;96313.03;;;19.19;100.00
46724;BME280;32463;48.298;11.620;2023-07-31T07:25:45;96311.41;;;19.18;100.00
46724;BME280;32463;48.298;11.620;2023-07-31T07:28:13;96311.72;;;19.28;100.00
46724;BME280;32463;48.298;11.620;2023-07-31T07:30:39;96307.66;;;19.32;100.00
46724;BME280;32463;48.298;11.620;2023-07-31T07:33:06;96302.72;;;19.42;100.00
46724;BME280;32463;48.298;11.620;2023-07-31T07:35:33;96308.50;;;19.26;100.00
46724;BME280;32463;48.298;11.620;2023-07-31T07:38:01;96300.13;;;19.67;97.73
46724;BME280;32463;48.298;11.620;2023-07-31T07:40:27;96307.13;;;19.24;99.71
46724;BME280;32463;48.298;11.620;2023-07-31T07:42:54;96307.34;;;19.22;99.54
46724;BME280;32463;48.298;11.620;2023-07-31T07:45:20;96302.81;;;19.29;100.00
46724;BME280;32463;48.298;11.620;2023-07-31T07:47:47;96291.16;;;19.25;98.58
46724;BME280;32463;48.298;11.620;2023-07-31T07:50:13;96288.50;;;19.57;98.27
46724;BME280;32463;48.298;11.620;2023-07-31T07:52:39;96286.22;;;19.85;95.80
46724;BME280;32463;48.298;11.620;2023-07-31T07:55:06;96279.31;;;20.21;94.34
46724;BME280;32463;48.298;11.620;2023-07-31T07:57:32;96278.03;;;20.11;95.69
46724;BME280;32463;48.298;11.620;2023-07-31T07:59:59;96277.72;;;20.19;92.91
46724;BME280;32463;48.298;11.620;2023-07-31T08:02:25;96275.47;;;20.41;91.83
46724;BME280;32463;48.298;11.620;2023-07-31T08:04:52;96278.97;;;20.17;90.78
46724;BME280;32463;48.298;11.620;2023-07-31T08:07:18;96270.56;;;20.45;87.70
46724;BME280;32463;48.298;11.620;2023-07-31T08:09:45;96269.13;;;20.61;87.47
46724;BME280;32463;48.298;11.620;2023-07-31T08:12:11;96273.69;;;20.83;89.03
46724;BME280;32463;48.298;11.620;2023-07-31T08:14:38;96269.41;;;21.01;84.99
46724;BME280;32463;48.298;11.620;2023-07-31T08:17:04;96273.97;;;20.94;82.46
46724;BME280;32463;48.298;11.620;2023-07-31T08:19:31;96264.63;;;20.79;80.76
46724;BME280;32463;48.298;11.620;2023-07-31T08:21:57;96267.31;;;20.91;80.71
46724;BME280;32463;48.298;11.620;2023-07-31T08:24:24;96270.06;;;21.26;80.09
46724;BME280;32463;48.298;11.620;2023-07-31T08:26:50;96274.19;;;21.80;77.64
46724;BME280;32463;48.298;11.620;2023-07-31T08:29:16;96273.31;;;21.63;75.70
46724;BME280;32463;48.298;11.620;2023-07-31T08:31:43;96273.84;;;21.30;74.06
46724;BME280;32463;48.298;11.620;2023-07-31T08:34:09;96268.25;;;20.97;73.80
46724;BME280;32463;48.298;11.620;2023-07-31T08:36:36;96273.31;;;20.50;72.94
46724;BME280;32463;48.298;11.620;2023-07-31T08:39:02;96268.84;;;20.50;71.18
46724;BME280;32463;48.298;11.620;2023-07-31T08:41:29;96265.13;;;20.58;71.36
46724;BME280;32463;48.298;11.620;2023-07-31T08:43:56;96269.22;;;20.84;72.08
46724;BME280;32463;48.298;11.620;2023-07-31T08:46:23;96268.28;;;21.20;68.36
46724;BME280;32463;48.298;11.620;2023-07-31T08:48:51;96272.88;;;20.83;69.05
46724;BME280;32463;48.298;11.620;2023-07-31T08:51:19;96277.31;;;21.01;65.90
46724;BME280;32463;48.298;11.620;2023-07-31T08:53:45;96272.59;;;20.61;64.70
46724;BME280;32463;48.298;11.620;2023-07-31T08:56:16;96274.81;;;20.46;64.98
46724;BME280;32463;48.298;11.620;2023-07-31T08:58:43;96270.84;;;20.37;66.14
46724;BME280;32463;48.298;11.620;2023-07-31T09:01:11;96269.09;;;20.31;66.34
46724;BME280;32463;48.298;11.620;2023-07-31T09:03:38;96272.63;;;20.06;72.90
46724;BME280;32463;48.298;11.620;2023-07-31T09:06:06;96273.63;;;19.87;78.21
46724;BME280;32463;48.298;11.620;2023-07-31T09:08:33;96283.84;;;19.77;81.48
46724;BME280;32463;48.298;11.620;2023-07-31T09:11:01;96282.19;;;19.82;83.21
46724;BME280;32463;48.298;11.620;2023-07-31T09:13:30;96284.88;;;19.94;85.03
46724;BME280;32463;48.298;11.620;2023-07-31T09:15:57;96280.53;;;20.43;81.00
46724;BME280;32463;48.298;11.620;2023-07-31T09:18:23;96277.34;;;20.52;80.33
46724;BME280;32463;48.298;11.620;2023-07-31T09:21:05;96274.09;;;20.99;79.03
46724;BME280;32463;48.298;11.620;2023-07-31T09:23:46;96263.22;;;21.07;75.42
46724;BME280;32463;48.298;11.620;2023-07-31T09:26:33;96251.59;;;21.73;74.26
46724;BME280;32463;48.298;11.620;2023-07-31T09:29:01;96245.88;;;22.39;68.25
46724;BME280;32463;48.298;11.620;2023-07-31T09:31:42;96250.34;;;22.79;66.46
46724;BME280;32463;48.298;11.620;2023-07-31T09:34:09;96251.72;;;22.70;64.76
46724;BME280;32463;48.298;11.620;2023-07-31T09:36:47;96258.38;;;22.44;67.01
46724;BME280;32463;48.298;11.620;2023-07-31T09:39:16;96256.06;;;22.19;65.40
46724;BME280;32463;48.298;11.620;2023-07-31T09:41:44;96247.81;;;21.80;66.67
46724;BME280;32463;48.298;11.620;2023-07-31T09:44:11;96236.09;;;22.11;67.16
46724;BME280;32463;48.298;11.620;2023-07-31T09:46:38;96246.13;;;22.66;65.40
46724;BME280;32463;48.298;11.620;2023-07-31T09:49:07;96249.53;;;22.78;60.47
46724;BME280;32463;48.298;11.620;2023-07-31T09:51:34;96242.44;;;22.67;59.40
46724;BME280;32463;48.298;11.620;2023-07-31T09:54:13;96243.09;;;22.74;58.84
46724;BME280;32463;48.298;11.620;2023-07-31T09:56:45;96234.91;;;22.31;59.52
46724;BME280;32463;48.298;11.620;2023-07-31T09:59:14;96224.16;;;22.49;60.85
46724;BME280;32463;48.298;11.620;2023-07-31T10:01:43;96227.56;;;22.21;60.38
46724;BME280;32463;48.298;11.620;2023-07-31T10:04:20;96208.97;;;22.56;59.33
46724;BME280;32463;48.298;11.620;2023-07-31T10:06:52;96213.53;;;23.39;56.99
46724;BME280;32463;48.298;11.620;2023-07-31T10:09:21;96208.03;;;24.01;54.66
46724;BME280;32463;48.298;11.620;2023-07-31T10:11:55;96207.38;;;24.33;54.34
46724;BME280;32463;48.298;11.620;2023-07-31T10:14:23;96195.31;;;24.42;53.43
46724;BME280;32463;48.298;11.620;2023-07-31T10:16:50;96193.53;;;24.26;53.77
46724;BME280;32463;48.298;11.620;2023-07-31T10:19:18;96191.06;;;24.68;52.87
46724;BME280;32463;48.298;11.620;2023-07-31T10:21:48;96177.22;;;24.93;50.39
46724;BME280;32463;48.298;11.620;2023-07-31T10:24:15;96171.13;;;25.24;49.77
46724;BME280;32463;48.298;11.620;2023-07-31T10:26:45;96159.16;;;24.90;50.57
46724;BME280;32463;48.298;11.620;2023-07-31T10:29:12;96165.22;;;25.17;50.08
46724;BME280;32463;48.298;11.620;2023-07-31T10:31:43;96168.81;;;24.47;51.74
46724;BME280;32463;48.298;11.620;2023-07-31T10:34:11;96162.75;;;24.78;50.48
46724;BME280;32463;48.298;11.620;2023-07-31T10:36:38;96167.66;;;24.11;53.05
46724;BME280;32463;48.298;11.620;2023-07-31T10:39:34;96169.09;;;23.41;53.75
46724;BME280;32463;48.298;11.620;2023-07-31T10:42:10;96170.59;;;23.15;54.89
46724;BME280;32463;48.298;11.620;2023-07-31T10:44:36;96171.34;;;24.10;53.30
46724;BME280;32463;48.298;11.620;2023-07-31T10:47:03;96166.28;;;24.57;51.30
46724;BME280;32463;48.298;11.620;2023-07-31T10:49:30;96162.69;;;24.41;51.99
46724;BME280;32463;48.298;11.620;2023-07-31T10:51:57;96162.34;;;25.24;50.03
46724;BME280;32463;48.298;11.620;2023-07-31T10:54:23;96161.69;;;24.74;50.94
46724;BME280;32463;48.298;11.620;2023-07-31T10:56:50;96160.38;;;24.01;52.42
46724;BME280;32463;48.298;11.620;2023-07-31T10:59:18;96162.38;;;24.65;51.25
46724;BME280;32463;48.298;11.620;2023-07-31T11:01:53;96147.97;;;24.56;51.50
46724;BME280;32463;48.298;11.620;2023-07-31T11:04:24;96148.28;;;24.32;50.94
46724;BME280;32463;48.298;11.620;2023-07-31T11:06:59;96150.69;;;24.34;52.34
46724;BME280;32463;48.298;11.620;2023-07-31T11:09:29;96145.09;;;24.57;51.02
46724;BME280;32463;48.298;11.620;2023-07-31T11:11:59;96144.91;;;24.37;50.62
46724;BME280;32463;48.298;11.620;2023-07-31T11:14:26;96144.75;;;24.80;50.88
46724;BME280;32463;48.298;11.620;2023-07-31T11:16:52;96131.97;;;24.72;49.54
46724;BME280;32463;48.298;11.620;2023-07-31T11:19:23;96134.66;;;24.77;50.88
46724;BME280;32463;48.298;11.620;2023-07-31T11:21:51;96120.53;;;24.99;49.04
46724;BME280;32463;48.298;11.620;2023-07-31T11:24:18;96115.22;;;24.99;49.00
46724;BME280;32463;48.298;11.620;2023-07-31T11:26:52;96117.84;;;25.88;46.94
46724;BME280;32463;48.298;11.620;2023-07-31T11:29:19;96113.75;;;26.43;47.36
46724;BME280;32463;48.298;11.620;2023-07-31T11:31:47;96107.06;;;25.58;48.10
46724;BME280;32463;48.298;11.620;2023-07-31T11:34:14;96104.44;;;25.63;47.44
46724;BME280;32463;48.298;11.620;2023-07-31T11:36:52;96105.69;;;26.07;47.25
46724;BME280;32463;48.298;11.620;2023-07-31T11:39:19;96100.44;;;26.28;46.72
46724;BME280;32463;48.298;11.620;2023-07-31T11:41:46;96091.91;;;27.27;44.27
46724;BME280;32463;48.298;11.620;2023-07-31T11:44:12;96088.75;;;28.00;43.49
46724;BME280;32463;48.298;11.620;2023-07-31T11:46:39;96075.56;;;27.74;42.89
46724;BME280;32463;48.298;11.620;2023-07-31T11:49:05;96074.53;;;28.93;41.80
46724;BME280;32463;48.298;11.620;2023-07-31T11:51:32;96075.94;;;27.27;42.58
46724;BME280;32463;48.298;11.620;2023-07-31T11:54:00;96062.28;;;28.13;42.23
46724;BME280;32463;48.298;11.620;2023-07-31T11:56:27;96065.75;;;27.55;42.47
46724;BME280;32463;48.298;11.620;2023-07-31T11:58:59;96055.28;;;26.73;42.50
46724;BME280;32463;48.298;11.620;2023-07-31T12:01:28;96049.91;;;27.14;41.71
46724;BME280;32463;48.298;11.620;2023-07-31T12:03:56;96040.28;;;27.23;41.29
46724;BME280;32463;48.298;11.620;2023-07-31T12:06:32;96046.41;;;27.93;39.70
46724;BME280;32463;48.298;11.620;2023-07-31T12:09:03;96052.13;;;28.15;40.77
46724;BME280;32463;48.298;11.620;2023-07-31T12:11:30;96040.66;;;27.76;39.57
46724;BME280;32463;48.298;11.620;2023-07-31T12:13:56;96048.91;;;28.18;41.31
46724;BME280;32463;48.298;11.620;2023-07-31T12:16:26;96040.66;;;26.50;42.68
46724;BME280;32463;48.298;11.620;2023-07-31T12:18:53;96021.16;;;27.16;42.55
46724;BME280;32463;48.298;11.620;2023-07-31T12:21:19;96025.16;;;27.83;41.27
46724;BME280;32463;48.298;11.620;2023-07-31T12:23:46;96022.03;;;28.49;41.09
46724;BME280;32463;48.298;11.620;2023-07-31T12:26:14;96017.66;;;28.34;39.52
46724;BME280;32463;48.298;11.620;2023-07-31T12:28:45;96014.84;;;30.17;38.10
46724;BME280;32463;48.298;11.620;2023-07-31T12:31:13;96011.56;;;28.92;38.27
46724;BME280;32463;48.298;11.620;2023-07-31T12:33:41;96015.03;;;28.29;39.96
46724;BME280;32463;48.298;11.620;2023-07-31T12:36:20;96010.47;;;28.93;38.79
46724;BME280;32463;48.298;11.620;2023-07-31T12:38:47;96014.47;;;30.04;37.67
46724;BME280;32463;48.298;11.620;2023-07-31T12:41:14;96010.59;;;29.54;38.41
46724;BME280;32463;48.298;11.620;2023-07-31T12:43:42;96008.81;;;28.39;40.43
46724;BME280;32463;48.298;11.620;2023-07-31T12:46:09;96006.09;;;27.61;41.38
46724;BME280;32463;48.298;11.620;2023-07-31T12:48:37;96011.66;;;26.69;42.86
46724;BME280;32463;48.298;11.620;2023-07-31T12:51:04;96001.28;;;26.63;43.00